Wind Cave Natl Park, South Dakota
Current Conditions -  °F | °C
As of 6:53 AM on Saturday 25 Oct 2014 (Local Time) from KCUT Reporting Station
Clear Clear  
Wind Chill: 29°   Ceiling: Unl
Heat Index: 33°   Visibility: 10mi
Dew Point: 28°   Wind: 5mph
Humidity: 82%   Direction: 320°NW
Pressure: 30.2"   Gusts: NA
Location:  43.59°N, 103.42°W
Report Text: KCUT 251253Z AUTO 32004KT 10SM CLR 01/M02 A3020 RMK AO2 SLP220 T00061022
Loading
Personal Weather Stations






























Interactive Weather Map
Tropical Storm Tracking
New forecast layout! Learn more

10-Day Weather Forecast

Advertisements
Track Severe Weather on mobile